createdAt,value
2023-05-20T00:02:03.156Z,2.80
2023-05-20T00:07:08.060Z,3.13
2023-05-20T00:12:11.490Z,3.15
2023-05-20T00:17:14.970Z,1.83
2023-05-20T00:22:19.723Z,2.13
2023-05-20T00:27:23.166Z,3.67
2023-05-20T00:32:27.018Z,1.70
2023-05-20T00:37:32.123Z,2.20
2023-05-20T00:42:35.778Z,1.48
2023-05-20T00:47:40.403Z,0.80
2023-05-20T00:52:48.222Z,5.43
2023-05-20T00:57:53.733Z,2.90
2023-05-20T01:02:57.719Z,2.25
2023-05-20T01:08:02.651Z,4.25
2023-05-20T01:13:12.279Z,2.70
2023-05-20T01:18:18.436Z,3.35
2023-05-20T01:23:23.253Z,2.92
2023-05-20T01:28:27.087Z,3.53
2023-05-20T01:33:31.257Z,1.45
2023-05-20T01:38:37.986Z,1.80
2023-05-20T01:43:42.109Z,2.03
2023-05-20T01:48:45.571Z,1.83
2023-05-20T01:53:50.529Z,4.03
2023-05-20T01:58:53.989Z,2.17
2023-05-20T02:03:57.463Z,2.35
2023-05-20T02:09:02.328Z,1.77
2023-05-20T02:14:05.885Z,2.80
2023-05-20T02:19:12.729Z,1.88
2023-05-20T02:24:17.906Z,2.53
2023-05-20T02:29:22.205Z,3.17
2023-05-20T02:34:27.029Z,2.05
2023-05-20T02:39:32.172Z,2.63
2023-05-20T02:44:35.783Z,3.20
2023-05-20T02:49:39.212Z,1.33
2023-05-20T02:54:44.063Z,1.05
2023-05-20T02:59:47.890Z,8.23
2023-05-20T03:04:54.003Z,1.83
2023-05-20T03:09:59.522Z,2.70
2023-05-20T03:15:03.730Z,5.47
2023-05-20T03:20:12.328Z,4.90
2023-05-20T03:25:19.010Z,3.10
2023-05-20T03:30:23.453Z,2.30
2023-05-20T03:35:27.325Z,3.05
2023-05-20T03:40:33.318Z,2.90
2023-05-20T03:45:37.040Z,0.93
2023-05-20T03:50:42.923Z,1.42
2023-05-20T03:55:47.807Z,2.40
2023-05-20T04:00:51.333Z,2.65
2023-05-20T04:05:54.936Z,2.33
2023-05-20T04:11:00.234Z,3.05
2023-05-20T04:16:05.372Z,3.15
2023-05-20T04:21:09.157Z,1.10
2023-05-20T04:26:14.574Z,2.00
2023-05-20T04:31:18.720Z,3.25
2023-05-20T04:36:22.403Z,2.78
2023-05-20T04:41:27.396Z,1.88
2023-05-20T04:46:32.132Z,2.05
2023-05-20T04:51:35.963Z,2.83
2023-05-20T04:56:41.191Z,2.90
2023-05-20T05:01:44.644Z,2.35
2023-05-20T05:06:49.698Z,1.05
2023-05-20T05:11:54.657Z,4.45
2023-05-20T05:16:58.222Z,2.35
2023-05-20T05:22:01.738Z,2.72
2023-05-20T05:27:08.083Z,2.42
2023-05-20T05:32:11.590Z,1.85
2023-05-20T05:37:15.875Z,1.77
2023-05-20T05:42:21.133Z,1.80
2023-05-20T05:47:29.633Z,3.35
2023-05-20T05:52:33.290Z,1.73
2023-05-20T05:57:40.224Z,1.92
2023-05-20T06:02:44.580Z,3.13
2023-05-20T06:07:50.143Z,2.35
2023-05-20T06:12:55.060Z,2.63
2023-05-20T06:17:58.795Z,3.65
2023-05-20T06:23:03.229Z,2.17
2023-05-20T06:28:19.424Z,1.85
2023-05-20T06:33:26.667Z,2.50
2023-05-20T06:38:31.103Z,1.88
2023-05-20T06:43:36.024Z,1.58
2023-05-20T06:48:59.530Z,2.67
2023-05-20T06:54:03.133Z,1.80
2023-05-20T06:59:08.837Z,2.10
2023-05-20T07:04:13.106Z,3.15
2023-05-20T07:09:16.662Z,2.40
2023-05-20T07:14:21.456Z,4.53
2023-05-20T07:19:25.127Z,6.68
2023-05-20T07:24:28.859Z,10.40
2023-05-20T07:29:35.042Z,6.15
2023-05-20T07:34:38.614Z,7.47
2023-05-20T07:39:42.095Z,5.13
2023-05-20T07:44:47.016Z,6.55
2023-05-20T07:49:50.665Z,3.80
2023-05-20T07:54:54.225Z,3.85
2023-05-20T07:59:59.184Z,3.65
2023-05-20T08:05:05.048Z,10.02
2023-05-20T08:10:11.267Z,6.60
2023-05-20T08:15:16.435Z,6.47
2023-05-20T08:20:20.912Z,5.38
2023-05-20T08:25:24.712Z,6.55
2023-05-20T08:30:29.579Z,3.17
2023-05-20T08:35:33.802Z,9.57
2023-05-20T08:40:37.600Z,4.05
2023-05-20T08:45:43.101Z,4.53
2023-05-20T08:50:53.813Z,5.57
2023-05-20T08:56:03.197Z,3.75
2023-05-20T09:01:09.521Z,3.80
2023-05-20T09:06:20.126Z,4.40
2023-05-20T09:11:23.825Z,3.03
2023-05-20T09:16:28.908Z,3.78
2023-05-20T09:21:33.081Z,5.22
2023-05-20T09:26:37.009Z,4.22
2023-05-20T09:31:43.085Z,5.00
2023-05-20T09:36:47.559Z,7.28
2023-05-20T09:41:58.983Z,5.15
2023-05-20T09:47:05.804Z,3.85
2023-05-20T09:52:10.737Z,3.55
2023-05-20T09:57:14.859Z,5.80
2023-05-20T10:02:19.694Z,6.25
2023-05-20T10:08:20.125Z,4.70
2023-05-20T10:14:09.384Z,6.32
2023-05-20T10:19:30.973Z,5.50
2023-05-20T10:24:38.634Z,4.22
2023-05-20T10:29:52.365Z,4.57
2023-05-20T10:35:04.704Z,6.32
2023-05-20T10:40:12.151Z,16.98
2023-05-20T10:45:27.688Z,26.77
2023-05-20T10:50:38.347Z,29.25
2023-05-20T10:55:51.568Z,26.35
2023-05-20T11:00:56.868Z,25.10
2023-05-20T11:06:01.702Z,23.25
2023-05-20T11:11:05.331Z,19.95
2023-05-20T11:16:09.266Z,23.08
2023-05-20T11:21:14.916Z,22.98
2023-05-20T11:26:18.326Z,19.58
2023-05-20T11:31:22.571Z,17.10
2023-05-20T11:36:28.809Z,21.50
2023-05-20T11:41:34.740Z,17.48
2023-05-20T11:46:44.559Z,16.75
2023-05-20T11:51:49.358Z,12.98
2023-05-20T11:56:53.027Z,17.73
2023-05-20T12:01:56.437Z,16.23
2023-05-20T12:07:01.218Z,15.50
2023-05-20T12:12:05.221Z,12.02
2023-05-20T12:17:08.642Z,13.57
2023-05-20T12:22:13.726Z,9.50
2023-05-20T12:27:17.497Z,11.15
2023-05-20T12:32:21.170Z,10.20
2023-05-20T12:37:26.120Z,10.63
2023-05-20T12:42:29.715Z,8.80
2023-05-20T12:47:34.817Z,9.65
2023-05-20T12:52:39.666Z,6.78
2023-05-20T12:57:45.488Z,9.23
2023-05-20T13:02:49.113Z,5.32
2023-05-20T13:07:54.074Z,7.05
2023-05-20T13:12:58.292Z,6.00
2023-05-20T13:18:03.340Z,7.40
2023-05-20T13:23:08.215Z,6.63
2023-05-20T13:28:13.056Z,7.47
2023-05-20T13:33:16.571Z,6.75
2023-05-20T13:38:21.546Z,7.72
2023-05-20T13:43:28.691Z,4.53
2023-05-20T13:48:33.089Z,5.43
2023-05-20T13:53:37.970Z,6.22
2023-05-20T13:58:41.608Z,5.95
2023-05-20T14:03:45.260Z,4.75
2023-05-20T14:08:50.148Z,4.78
2023-05-20T14:13:53.596Z,4.95
2023-05-20T14:18:57.048Z,8.68
2023-05-20T14:24:02.438Z,6.05
2023-05-20T14:29:05.841Z,4.93
2023-05-20T14:34:09.227Z,6.00
2023-05-20T14:39:14.002Z,10.13
2023-05-20T14:44:17.450Z,7.03
2023-05-20T14:49:20.894Z,8.48
2023-05-20T14:54:27.635Z,5.88
2023-05-20T14:59:31.317Z,5.57
2023-05-20T15:04:35.338Z,5.55
2023-05-20T15:09:40.437Z,7.45
2023-05-20T15:14:43.866Z,7.07
2023-05-20T15:19:47.914Z,7.20
2023-05-20T15:24:52.871Z,7.40
2023-05-20T15:29:56.414Z,8.88
2023-05-20T15:35:02.635Z,11.18
2023-05-20T15:40:11.282Z,8.82
2023-05-20T15:45:14.683Z,10.40
2023-05-20T15:50:22.897Z,6.90
2023-05-20T15:55:27.883Z,9.38
2023-05-20T16:00:40.533Z,9.23
2023-05-20T16:05:43.952Z,7.88
2023-05-20T16:10:58.992Z,12.43
2023-05-20T16:16:02.802Z,8.60
2023-05-20T16:21:35.275Z,6.03
2023-05-20T16:26:43.238Z,7.25
2023-05-20T16:31:47.079Z,5.28
2023-05-20T16:36:51.030Z,6.35
2023-05-20T16:41:55.922Z,6.90
2023-05-20T16:46:59.332Z,4.70
2023-05-20T16:52:04.196Z,7.80
2023-05-20T16:57:11.345Z,5.25
2023-05-20T17:02:14.875Z,5.47
2023-05-20T17:07:18.527Z,6.57
2023-05-20T17:12:23.406Z,7.80
2023-05-20T17:17:26.837Z,5.53
2023-05-20T17:22:30.351Z,6.65
2023-05-20T17:27:35.148Z,6.63
2023-05-20T17:32:40.437Z,5.53
2023-05-20T17:37:46.746Z,8.10
2023-05-20T17:42:51.747Z,7.85
2023-05-20T17:47:55.301Z,8.57
2023-05-20T17:52:59.528Z,10.77
2023-05-20T17:58:04.684Z,10.10
2023-05-20T18:03:08.201Z,9.45
2023-05-20T18:08:11.769Z,9.10
2023-05-20T18:13:20.637Z,9.68
2023-05-20T18:18:24.078Z,9.93
2023-05-20T18:23:27.504Z,8.13
2023-05-20T18:28:32.334Z,10.10
2023-05-20T18:33:37.059Z,13.25
2023-05-20T18:38:41.692Z,14.15
2023-05-20T18:43:46.837Z,14.15
2023-05-20T18:48:50.461Z,16.10
2023-05-20T18:53:54.081Z,20.75
2023-05-20T18:58:58.907Z,22.20
2023-05-20T19:04:02.308Z,21.20
2023-05-20T19:09:06.355Z,13.50
2023-05-20T19:14:14.365Z,11.60
2023-05-20T19:19:17.943Z,10.38
2023-05-20T19:24:21.429Z,11.00
2023-05-20T19:29:26.284Z,8.80
2023-05-20T19:34:31.966Z,7.63
2023-05-20T19:39:35.471Z,8.15
2023-05-20T19:44:40.294Z,8.25
2023-05-20T19:49:43.810Z,8.57
2023-05-20T19:54:48.649Z,7.13
2023-05-20T19:59:54.171Z,6.60
2023-05-20T20:04:59.173Z,7.07
2023-05-20T20:10:02.719Z,6.90
2023-05-20T20:15:10.441Z,7.60
2023-05-20T20:20:15.835Z,10.00
2023-05-20T20:25:20.399Z,9.80
2023-05-20T20:30:25.201Z,6.75
2023-05-20T20:35:28.691Z,7.45
2023-05-20T20:40:33.416Z,6.15
2023-05-20T20:45:38.219Z,7.03
2023-05-20T20:50:41.968Z,6.75
2023-05-20T20:55:46.211Z,7.15
2023-05-20T21:00:51.241Z,6.47
2023-05-20T21:05:56.072Z,6.55
2023-05-20T21:11:00.177Z,6.70
2023-05-20T21:16:05.349Z,6.03
2023-05-20T21:21:12.142Z,6.20
2023-05-20T21:26:15.909Z,6.47
2023-05-20T21:31:20.818Z,7.07
2023-05-20T21:36:24.363Z,5.95
2023-05-20T21:41:27.838Z,5.57
2023-05-20T21:46:32.628Z,6.93
2023-05-20T21:51:36.102Z,6.38
2023-05-20T21:56:40.086Z,7.05
2023-05-20T22:01:44.947Z,7.18
2023-05-20T22:06:50.747Z,8.88
2023-05-20T22:11:54.470Z,15.38
2023-05-20T22:16:59.529Z,9.68
2023-05-20T22:22:03.294Z,13.27
2023-05-20T22:27:08.132Z,12.55
2023-05-20T22:32:12.984Z,12.02
2023-05-20T22:37:19.046Z,15.23
2023-05-20T22:42:23.569Z,15.32
2023-05-20T22:47:28.342Z,19.77
2023-05-20T22:52:32.585Z,20.05
2023-05-20T22:57:36.960Z,10.55
2023-05-20T23:02:42.243Z,17.30
2023-05-20T23:07:45.863Z,12.23
2023-05-20T23:12:49.271Z,11.77
2023-05-20T23:17:54.023Z,11.70
2023-05-20T23:22:58.094Z,12.80
2023-05-20T23:28:02.462Z,11.27
2023-05-20T23:33:07.405Z,10.43
2023-05-20T23:38:11.038Z,17.25
2023-05-20T23:43:14.751Z,10.63
2023-05-20T23:48:19.935Z,10.15
2023-05-20T23:53:23.353Z,11.90
2023-05-20T23:58:26.754Z,11.90
